sensor_id;sensor_type;location;lat;lon;timestamp;P1;durP1;ratioP1;P2;durP2;ratioP2
45208;SDS011;30951;43.994;26.260;2024-02-26T00:00:27;31.88;;;20.50;;
45208;SDS011;30951;43.994;26.260;2024-02-26T00:02:54;40.42;;;22.08;;
45208;SDS011;30951;43.994;26.260;2024-02-26T00:05:19;33.50;;;21.52;;
45208;SDS011;30951;43.994;26.260;2024-02-26T00:07:45;42.50;;;23.70;;
45208;SDS011;30951;43.994;26.260;2024-02-26T00:10:10;129.88;;;51.58;;
45208;SDS011;30951;43.994;26.260;2024-02-26T00:12:36;47.85;;;26.13;;
45208;SDS011;30951;43.994;26.260;2024-02-26T00:15:02;36.15;;;21.92;;
45208;SDS011;30951;43.994;26.260;2024-02-26T00:17:28;34.60;;;22.55;;
45208;SDS011;30951;43.994;26.260;2024-02-26T00:19:53;38.47;;;21.67;;
45208;SDS011;30951;43.994;26.260;2024-02-26T00:22:19;44.95;;;26.63;;
45208;SDS011;30951;43.994;26.260;2024-02-26T00:24:44;37.28;;;23.15;;
45208;SDS011;30951;43.994;26.260;2024-02-26T00:27:10;44.33;;;22.20;;
45208;SDS011;30951;43.994;26.260;2024-02-26T00:29:35;35.63;;;20.80;;
45208;SDS011;30951;43.994;26.260;2024-02-26T00:32:01;34.90;;;20.73;;
45208;SDS011;30951;43.994;26.260;2024-02-26T00:34:26;35.95;;;21.98;;
45208;SDS011;30951;43.994;26.260;2024-02-26T00:36:52;46.70;;;25.33;;
45208;SDS011;30951;43.994;26.260;2024-02-26T00:39:17;37.75;;;23.13;;
45208;SDS011;30951;43.994;26.260;2024-02-26T00:41:43;36.75;;;20.42;;
45208;SDS011;30951;43.994;26.260;2024-02-26T00:44:08;31.17;;;20.35;;
45208;SDS011;30951;43.994;26.260;2024-02-26T00:46:34;42.38;;;22.08;;
45208;SDS011;30951;43.994;26.260;2024-02-26T00:48:59;40.28;;;22.20;;
45208;SDS011;30951;43.994;26.260;2024-02-26T00:51:25;35.33;;;21.67;;
45208;SDS011;30951;43.994;26.260;2024-02-26T00:53:51;37.78;;;19.60;;
45208;SDS011;30951;43.994;26.260;2024-02-26T00:56:16;37.17;;;20.48;;
45208;SDS011;30951;43.994;26.260;2024-02-26T00:58:42;38.55;;;22.58;;
45208;SDS011;30951;43.994;26.260;2024-02-26T01:01:07;35.58;;;21.55;;
45208;SDS011;30951;43.994;26.260;2024-02-26T01:03:33;34.83;;;21.10;;
45208;SDS011;30951;43.994;26.260;2024-02-26T01:05:58;46.13;;;24.48;;
45208;SDS011;30951;43.994;26.260;2024-02-26T01:08:23;44.97;;;25.38;;
45208;SDS011;30951;43.994;26.260;2024-02-26T01:10:49;51.28;;;29.00;;
45208;SDS011;30951;43.994;26.260;2024-02-26T01:13:14;43.22;;;27.52;;
45208;SDS011;30951;43.994;26.260;2024-02-26T01:15:40;40.13;;;21.63;;
45208;SDS011;30951;43.994;26.260;2024-02-26T01:18:05;33.33;;;19.67;;
45208;SDS011;30951;43.994;26.260;2024-02-26T01:20:31;34.53;;;20.05;;
45208;SDS011;30951;43.994;26.260;2024-02-26T01:22:56;35.97;;;20.67;;
45208;SDS011;30951;43.994;26.260;2024-02-26T01:25:22;32.85;;;18.10;;
45208;SDS011;30951;43.994;26.260;2024-02-26T01:27:47;31.48;;;18.23;;
45208;SDS011;30951;43.994;26.260;2024-02-26T01:30:13;40.75;;;21.42;;
45208;SDS011;30951;43.994;26.260;2024-02-26T01:32:41;29.08;;;19.73;;
45208;SDS011;30951;43.994;26.260;2024-02-26T01:35:06;39.50;;;19.67;;
45208;SDS011;30951;43.994;26.260;2024-02-26T01:37:35;31.20;;;19.67;;
45208;SDS011;30951;43.994;26.260;2024-02-26T01:40:01;33.60;;;19.02;;
45208;SDS011;30951;43.994;26.260;2024-02-26T01:42:29;30.83;;;17.92;;
45208;SDS011;30951;43.994;26.260;2024-02-26T01:44:56;33.05;;;19.25;;
45208;SDS011;30951;43.994;26.260;2024-02-26T01:47:21;33.97;;;19.83;;
45208;SDS011;30951;43.994;26.260;2024-02-26T01:49:48;33.65;;;19.98;;
45208;SDS011;30951;43.994;26.260;2024-02-26T01:52:13;31.35;;;18.85;;
45208;SDS011;30951;43.994;26.260;2024-02-26T01:54:39;32.10;;;19.83;;
45208;SDS011;30951;43.994;26.260;2024-02-26T01:57:06;32.65;;;18.33;;
45208;SDS011;30951;43.994;26.260;2024-02-26T01:59:32;37.33;;;19.05;;
45208;SDS011;30951;43.994;26.260;2024-02-26T02:01:59;31.13;;;18.92;;
45208;SDS011;30951;43.994;26.260;2024-02-26T02:04:27;30.00;;;18.42;;
45208;SDS011;30951;43.994;26.260;2024-02-26T02:06:52;30.00;;;18.80;;
45208;SDS011;30951;43.994;26.260;2024-02-26T02:09:19;34.65;;;18.95;;
45208;SDS011;30951;43.994;26.260;2024-02-26T02:11:44;38.72;;;20.33;;
45208;SDS011;30951;43.994;26.260;2024-02-26T02:14:10;38.72;;;20.02;;
45208;SDS011;30951;43.994;26.260;2024-02-26T02:16:35;39.90;;;20.10;;
45208;SDS011;30951;43.994;26.260;2024-02-26T02:19:01;32.28;;;17.88;;
45208;SDS011;30951;43.994;26.260;2024-02-26T02:21:26;34.70;;;19.35;;
45208;SDS011;30951;43.994;26.260;2024-02-26T02:23:52;33.35;;;18.02;;
45208;SDS011;30951;43.994;26.260;2024-02-26T02:26:17;32.33;;;17.42;;
45208;SDS011;30951;43.994;26.260;2024-02-26T02:28:43;29.65;;;18.30;;
45208;SDS011;30951;43.994;26.260;2024-02-26T02:31:10;26.27;;;16.38;;
45208;SDS011;30951;43.994;26.260;2024-02-26T02:33:35;35.85;;;17.40;;
45208;SDS011;30951;43.994;26.260;2024-02-26T02:36:02;35.70;;;17.17;;
45208;SDS011;30951;43.994;26.260;2024-02-26T02:38:28;34.13;;;19.00;;
45208;SDS011;30951;43.994;26.260;2024-02-26T02:40:55;30.15;;;17.23;;
45208;SDS011;30951;43.994;26.260;2024-02-26T02:43:20;31.95;;;17.35;;
45208;SDS011;30951;43.994;26.260;2024-02-26T02:45:46;27.45;;;17.05;;
45208;SDS011;30951;43.994;26.260;2024-02-26T02:48:11;26.00;;;16.50;;
45208;SDS011;30951;43.994;26.260;2024-02-26T02:50:37;28.27;;;17.20;;
45208;SDS011;30951;43.994;26.260;2024-02-26T02:53:03;28.98;;;17.08;;
45208;SDS011;30951;43.994;26.260;2024-02-26T02:55:28;31.92;;;18.13;;
45208;SDS011;30951;43.994;26.260;2024-02-26T02:57:54;29.35;;;17.35;;
45208;SDS011;30951;43.994;26.260;2024-02-26T03:00:19;29.42;;;16.75;;
45208;SDS011;30951;43.994;26.260;2024-02-26T03:02:45;30.60;;;17.10;;
45208;SDS011;30951;43.994;26.260;2024-02-26T03:05:11;30.23;;;18.13;;
45208;SDS011;30951;43.994;26.260;2024-02-26T03:07:37;27.83;;;16.73;;
45208;SDS011;30951;43.994;26.260;2024-02-26T03:10:02;30.88;;;16.63;;
45208;SDS011;30951;43.994;26.260;2024-02-26T03:12:29;34.72;;;17.20;;
45208;SDS011;30951;43.994;26.260;2024-02-26T03:14:55;31.55;;;16.73;;
45208;SDS011;30951;43.994;26.260;2024-02-26T03:17:20;32.75;;;16.60;;
45208;SDS011;30951;43.994;26.260;2024-02-26T03:19:46;34.65;;;16.38;;
45208;SDS011;30951;43.994;26.260;2024-02-26T03:22:12;32.78;;;17.42;;
45208;SDS011;30951;43.994;26.260;2024-02-26T03:24:38;25.27;;;16.00;;
45208;SDS011;30951;43.994;26.260;2024-02-26T03:27:04;29.42;;;17.08;;
45208;SDS011;30951;43.994;26.260;2024-02-26T03:29:34;25.33;;;15.30;;
45208;SDS011;30951;43.994;26.260;2024-02-26T03:32:00;31.17;;;16.25;;
45208;SDS011;30951;43.994;26.260;2024-02-26T03:34:26;32.72;;;17.02;;
45208;SDS011;30951;43.994;26.260;2024-02-26T03:36:52;28.48;;;16.15;;
45208;SDS011;30951;43.994;26.260;2024-02-26T03:39:17;35.15;;;17.15;;
45208;SDS011;30951;43.994;26.260;2024-02-26T03:41:43;31.15;;;15.88;;
45208;SDS011;30951;43.994;26.260;2024-02-26T03:44:08;35.03;;;18.02;;
45208;SDS011;30951;43.994;26.260;2024-02-26T03:46:34;35.25;;;17.15;;
45208;SDS011;30951;43.994;26.260;2024-02-26T03:49:00;25.27;;;15.60;;
45208;SDS011;30951;43.994;26.260;2024-02-26T03:51:25;26.08;;;17.48;;
45208;SDS011;30951;43.994;26.260;2024-02-26T03:53:51;30.00;;;17.23;;
45208;SDS011;30951;43.994;26.260;2024-02-26T03:56:17;31.20;;;16.27;;
45208;SDS011;30951;43.994;26.260;2024-02-26T03:58:42;28.92;;;15.95;;
45208;SDS011;30951;43.994;26.260;2024-02-26T04:01:08;31.95;;;17.42;;
45208;SDS011;30951;43.994;26.260;2024-02-26T04:03:34;33.90;;;17.40;;
45208;SDS011;30951;43.994;26.260;2024-02-26T04:05:59;24.92;;;15.60;;
45208;SDS011;30951;43.994;26.260;2024-02-26T04:08:25;28.00;;;16.38;;
45208;SDS011;30951;43.994;26.260;2024-02-26T04:10:51;52.05;;;27.77;;
45208;SDS011;30951;43.994;26.260;2024-02-26T04:13:17;34.33;;;19.35;;
45208;SDS011;30951;43.994;26.260;2024-02-26T04:15:43;29.45;;;16.92;;
45208;SDS011;30951;43.994;26.260;2024-02-26T04:18:08;33.90;;;17.35;;
45208;SDS011;30951;43.994;26.260;2024-02-26T04:20:34;33.08;;;17.33;;
45208;SDS011;30951;43.994;26.260;2024-02-26T04:22:59;33.28;;;19.48;;
45208;SDS011;30951;43.994;26.260;2024-02-26T04:25:25;35.45;;;18.80;;
45208;SDS011;30951;43.994;26.260;2024-02-26T04:27:50;30.40;;;16.92;;
45208;SDS011;30951;43.994;26.260;2024-02-26T04:30:16;32.53;;;18.02;;
45208;SDS011;30951;43.994;26.260;2024-02-26T04:32:42;32.20;;;18.20;;
45208;SDS011;30951;43.994;26.260;2024-02-26T04:35:07;30.10;;;17.83;;
45208;SDS011;30951;43.994;26.260;2024-02-26T04:37:33;33.25;;;18.65;;
45208;SDS011;30951;43.994;26.260;2024-02-26T04:39:59;39.05;;;20.42;;
45208;SDS011;30951;43.994;26.260;2024-02-26T04:42:25;37.55;;;20.67;;
45208;SDS011;30951;43.994;26.260;2024-02-26T04:44:51;35.20;;;19.65;;
45208;SDS011;30951;43.994;26.260;2024-02-26T04:47:17;35.47;;;18.67;;
45208;SDS011;30951;43.994;26.260;2024-02-26T04:49:42;44.13;;;19.58;;
45208;SDS011;30951;43.994;26.260;2024-02-26T04:52:08;43.85;;;21.95;;
45208;SDS011;30951;43.994;26.260;2024-02-26T04:54:33;49.53;;;26.02;;
45208;SDS011;30951;43.994;26.260;2024-02-26T04:56:59;46.25;;;24.02;;
45208;SDS011;30951;43.994;26.260;2024-02-26T04:59:25;39.60;;;21.20;;
45208;SDS011;30951;43.994;26.260;2024-02-26T05:01:50;40.38;;;21.38;;
45208;SDS011;30951;43.994;26.260;2024-02-26T05:04:17;44.95;;;19.63;;
45208;SDS011;30951;43.994;26.260;2024-02-26T05:06:43;43.97;;;21.17;;
45208;SDS011;30951;43.994;26.260;2024-02-26T05:09:08;30.77;;;17.80;;
45208;SDS011;30951;43.994;26.260;2024-02-26T05:11:34;42.53;;;17.45;;
45208;SDS011;30951;43.994;26.260;2024-02-26T05:14:00;37.75;;;19.52;;
45208;SDS011;30951;43.994;26.260;2024-02-26T05:16:26;37.65;;;19.45;;
45208;SDS011;30951;43.994;26.260;2024-02-26T05:18:52;45.28;;;21.20;;
45208;SDS011;30951;43.994;26.260;2024-02-26T05:21:18;33.58;;;19.10;;
45208;SDS011;30951;43.994;26.260;2024-02-26T05:23:44;35.38;;;19.27;;
45208;SDS011;30951;43.994;26.260;2024-02-26T05:26:10;37.47;;;20.58;;
45208;SDS011;30951;43.994;26.260;2024-02-26T05:28:36;44.40;;;20.38;;
45208;SDS011;30951;43.994;26.260;2024-02-26T05:31:04;37.97;;;19.90;;
45208;SDS011;30951;43.994;26.260;2024-02-26T05:33:30;39.88;;;20.08;;
45208;SDS011;30951;43.994;26.260;2024-02-26T05:35:55;37.70;;;19.77;;
45208;SDS011;30951;43.994;26.260;2024-02-26T05:38:21;41.88;;;20.15;;
45208;SDS011;30951;43.994;26.260;2024-02-26T05:40:46;45.22;;;22.33;;
45208;SDS011;30951;43.994;26.260;2024-02-26T05:43:12;42.97;;;22.05;;
45208;SDS011;30951;43.994;26.260;2024-02-26T05:45:40;43.20;;;20.42;;
45208;SDS011;30951;43.994;26.260;2024-02-26T05:48:06;50.03;;;27.50;;
45208;SDS011;30951;43.994;26.260;2024-02-26T05:50:32;42.55;;;23.48;;
45208;SDS011;30951;43.994;26.260;2024-02-26T05:52:57;43.97;;;22.83;;
45208;SDS011;30951;43.994;26.260;2024-02-26T05:55:23;35.53;;;20.67;;
45208;SDS011;30951;43.994;26.260;2024-02-26T05:57:48;33.30;;;19.65;;
45208;SDS011;30951;43.994;26.260;2024-02-26T06:00:14;38.35;;;19.83;;
45208;SDS011;30951;43.994;26.260;2024-02-26T06:02:40;36.83;;;19.90;;
45208;SDS011;30951;43.994;26.260;2024-02-26T06:05:06;32.10;;;19.75;;
45208;SDS011;30951;43.994;26.260;2024-02-26T06:07:34;40.22;;;21.13;;
45208;SDS011;30951;43.994;26.260;2024-02-26T06:10:00;48.00;;;24.27;;
45208;SDS011;30951;43.994;26.260;2024-02-26T06:12:25;42.33;;;21.40;;
45208;SDS011;30951;43.994;26.260;2024-02-26T06:14:53;40.10;;;20.92;;
45208;SDS011;30951;43.994;26.260;2024-02-26T06:17:19;37.00;;;20.17;;
45208;SDS011;30951;43.994;26.260;2024-02-26T06:19:44;45.20;;;24.52;;
45208;SDS011;30951;43.994;26.260;2024-02-26T06:22:10;40.42;;;22.42;;
45208;SDS011;30951;43.994;26.260;2024-02-26T06:24:35;41.65;;;23.77;;
45208;SDS011;30951;43.994;26.260;2024-02-26T06:27:01;41.45;;;23.85;;
45208;SDS011;30951;43.994;26.260;2024-02-26T06:29:26;43.25;;;23.55;;
45208;SDS011;30951;43.994;26.260;2024-02-26T06:31:52;39.88;;;22.52;;
45208;SDS011;30951;43.994;26.260;2024-02-26T06:34:17;33.42;;;21.60;;
45208;SDS011;30951;43.994;26.260;2024-02-26T06:36:43;36.67;;;20.60;;
45208;SDS011;30951;43.994;26.260;2024-02-26T06:39:08;40.83;;;20.63;;
45208;SDS011;30951;43.994;26.260;2024-02-26T06:41:35;30.88;;;19.60;;
45208;SDS011;30951;43.994;26.260;2024-02-26T06:44:01;29.30;;;17.83;;
45208;SDS011;30951;43.994;26.260;2024-02-26T06:46:27;34.75;;;19.50;;
45208;SDS011;30951;43.994;26.260;2024-02-26T06:48:55;26.25;;;17.02;;
45208;SDS011;30951;43.994;26.260;2024-02-26T06:51:21;29.75;;;18.35;;
45208;SDS011;30951;43.994;26.260;2024-02-26T06:53:47;26.75;;;16.90;;
45208;SDS011;30951;43.994;26.260;2024-02-26T06:56:13;26.27;;;16.60;;
45208;SDS011;30951;43.994;26.260;2024-02-26T06:58:38;25.50;;;16.17;;
45208;SDS011;30951;43.994;26.260;2024-02-26T07:01:04;25.33;;;16.10;;
45208;SDS011;30951;43.994;26.260;2024-02-26T07:03:29;28.55;;;17.02;;
45208;SDS011;30951;43.994;26.260;2024-02-26T07:05:55;25.25;;;16.13;;
45208;SDS011;30951;43.994;26.260;2024-02-26T07:08:21;22.80;;;15.50;;
45208;SDS011;30951;43.994;26.260;2024-02-26T07:10:46;24.60;;;15.48;;
45208;SDS011;30951;43.994;26.260;2024-02-26T07:13:12;23.55;;;15.13;;
45208;SDS011;30951;43.994;26.260;2024-02-26T07:15:37;25.83;;;14.43;;
45208;SDS011;30951;43.994;26.260;2024-02-26T07:18:03;26.70;;;14.80;;
45208;SDS011;30951;43.994;26.260;2024-02-26T07:20:29;23.52;;;15.13;;
45208;SDS011;30951;43.994;26.260;2024-02-26T07:22:55;26.23;;;14.75;;
45208;SDS011;30951;43.994;26.260;2024-02-26T07:25:21;26.10;;;15.50;;
45208;SDS011;30951;43.994;26.260;2024-02-26T07:27:46;31.08;;;19.85;;
45208;SDS011;30951;43.994;26.260;2024-02-26T07:30:12;29.42;;;17.30;;
45208;SDS011;30951;43.994;26.260;2024-02-26T07:32:38;25.70;;;15.38;;
45208;SDS011;30951;43.994;26.260;2024-02-26T07:35:04;28.83;;;15.18;;
45208;SDS011;30951;43.994;26.260;2024-02-26T07:37:30;38.40;;;20.23;;
45208;SDS011;30951;43.994;26.260;2024-02-26T07:39:55;37.78;;;20.98;;
45208;SDS011;30951;43.994;26.260;2024-02-26T07:42:21;27.63;;;18.60;;
45208;SDS011;30951;43.994;26.260;2024-02-26T07:44:46;33.72;;;19.23;;
45208;SDS011;30951;43.994;26.260;2024-02-26T07:47:12;25.88;;;17.33;;
45208;SDS011;30951;43.994;26.260;2024-02-26T07:49:37;23.13;;;15.38;;
45208;SDS011;30951;43.994;26.260;2024-02-26T07:52:04;22.95;;;15.32;;
45208;SDS011;30951;43.994;26.260;2024-02-26T07:54:29;25.70;;;15.48;;
45208;SDS011;30951;43.994;26.260;2024-02-26T07:56:55;30.00;;;15.90;;
45208;SDS011;30951;43.994;26.260;2024-02-26T07:59:20;27.05;;;16.10;;
45208;SDS011;30951;43.994;26.260;2024-02-26T08:01:52;28.33;;;17.13;;
45208;SDS011;30951;43.994;26.260;2024-02-26T08:04:18;26.02;;;15.25;;
45208;SDS011;30951;43.994;26.260;2024-02-26T08:06:43;19.17;;;12.25;;
45208;SDS011;30951;43.994;26.260;2024-02-26T08:09:09;24.17;;;13.65;;
45208;SDS011;30951;43.994;26.260;2024-02-26T08:11:34;21.42;;;13.77;;
45208;SDS011;30951;43.994;26.260;2024-02-26T08:14:00;17.55;;;12.77;;
45208;SDS011;30951;43.994;26.260;2024-02-26T08:16:25;19.77;;;14.10;;
45208;SDS011;30951;43.994;26.260;2024-02-26T08:18:51;22.30;;;12.80;;
45208;SDS011;30951;43.994;26.260;2024-02-26T08:21:16;21.83;;;13.52;;
45208;SDS011;30951;43.994;26.260;2024-02-26T08:23:43;20.70;;;12.93;;
45208;SDS011;30951;43.994;26.260;2024-02-26T08:26:09;19.15;;;12.27;;
45208;SDS011;30951;43.994;26.260;2024-02-26T08:28:39;18.85;;;12.60;;
45208;SDS011;30951;43.994;26.260;2024-02-26T08:31:05;21.15;;;12.70;;
45208;SDS011;30951;43.994;26.260;2024-02-26T08:33:30;17.98;;;11.85;;
45208;SDS011;30951;43.994;26.260;2024-02-26T08:35:56;17.80;;;11.95;;
45208;SDS011;30951;43.994;26.260;2024-02-26T08:38:21;19.65;;;11.13;;
45208;SDS011;30951;43.994;26.260;2024-02-26T08:40:47;20.08;;;11.38;;
45208;SDS011;30951;43.994;26.260;2024-02-26T08:43:13;26.98;;;13.52;;
45208;SDS011;30951;43.994;26.260;2024-02-26T08:45:38;21.77;;;12.20;;
45208;SDS011;30951;43.994;26.260;2024-02-26T08:48:04;20.35;;;11.63;;
45208;SDS011;30951;43.994;26.260;2024-02-26T08:50:30;20.02;;;12.68;;
45208;SDS011;30951;43.994;26.260;2024-02-26T08:52:56;20.25;;;12.10;;
45208;SDS011;30951;43.994;26.260;2024-02-26T08:55:21;18.92;;;13.18;;
45208;SDS011;30951;43.994;26.260;2024-02-26T08:57:47;21.45;;;12.13;;
45208;SDS011;30951;43.994;26.260;2024-02-26T09:00:12;21.52;;;12.43;;
45208;SDS011;30951;43.994;26.260;2024-02-26T09:02:40;20.98;;;11.90;;
45208;SDS011;30951;43.994;26.260;2024-02-26T09:05:08;21.02;;;12.43;;
45208;SDS011;30951;43.994;26.260;2024-02-26T09:07:35;20.25;;;12.52;;
45208;SDS011;30951;43.994;26.260;2024-02-26T09:10:00;133.02;;;42.50;;
45208;SDS011;30951;43.994;26.260;2024-02-26T09:12:26;32.85;;;15.45;;
45208;SDS011;30951;43.994;26.260;2024-02-26T09:14:51;23.23;;;15.02;;
45208;SDS011;30951;43.994;26.260;2024-02-26T09:17:17;36.53;;;17.17;;
45208;SDS011;30951;43.994;26.260;2024-02-26T09:19:42;54.33;;;26.70;;
45208;SDS011;30951;43.994;26.260;2024-02-26T09:22:09;36.10;;;17.90;;
45208;SDS011;30951;43.994;26.260;2024-02-26T09:24:34;18.15;;;11.45;;
45208;SDS011;30951;43.994;26.260;2024-02-26T09:27:00;21.15;;;11.85;;
45208;SDS011;30951;43.994;26.260;2024-02-26T09:29:26;22.15;;;14.50;;
45208;SDS011;30951;43.994;26.260;2024-02-26T09:31:52;31.02;;;15.65;;
45208;SDS011;30951;43.994;26.260;2024-02-26T09:34:18;20.08;;;13.50;;
45208;SDS011;30951;43.994;26.260;2024-02-26T09:36:43;18.83;;;12.00;;
45208;SDS011;30951;43.994;26.260;2024-02-26T09:39:09;20.52;;;11.38;;
45208;SDS011;30951;43.994;26.260;2024-02-26T09:41:36;18.73;;;12.00;;
45208;SDS011;30951;43.994;26.260;2024-02-26T09:44:02;16.27;;;11.60;;
45208;SDS011;30951;43.994;26.260;2024-02-26T09:46:28;26.65;;;17.13;;
45208;SDS011;30951;43.994;26.260;2024-02-26T09:48:53;22.70;;;14.95;;
45208;SDS011;30951;43.994;26.260;2024-02-26T09:51:20;21.45;;;12.65;;
45208;SDS011;30951;43.994;26.260;2024-02-26T09:53:49;22.55;;;14.50;;
45208;SDS011;30951;43.994;26.260;2024-02-26T09:56:16;21.88;;;13.48;;
45208;SDS011;30951;43.994;26.260;2024-02-26T09:58:42;64.55;;;35.72;;
45208;SDS011;30951;43.994;26.260;2024-02-26T10:01:11;23.48;;;14.30;;
45208;SDS011;30951;43.994;26.260;2024-02-26T10:03:39;26.00;;;15.13;;
45208;SDS011;30951;43.994;26.260;2024-02-26T10:06:10;27.98;;;17.48;;
45208;SDS011;30951;43.994;26.260;2024-02-26T10:08:36;52.80;;;27.77;;
45208;SDS011;30951;43.994;26.260;2024-02-26T10:11:08;46.45;;;23.13;;
45208;SDS011;30951;43.994;26.260;2024-02-26T10:13:35;28.88;;;18.35;;
45208;SDS011;30951;43.994;26.260;2024-02-26T10:16:03;21.30;;;14.73;;
45208;SDS011;30951;43.994;26.260;2024-02-26T10:21:30;67.75;;;36.78;;
45208;SDS011;30951;43.994;26.260;2024-02-26T10:23:55;99.75;;;51.50;;
45208;SDS011;30951;43.994;26.260;2024-02-26T10:26:21;134.98;;;65.25;;
45208;SDS011;30951;43.994;26.260;2024-02-26T10:28:47;700.30;;;346.50;;
45208;SDS011;30951;43.994;26.260;2024-02-26T10:31:13;406.40;;;183.40;;
45208;SDS011;30951;43.994;26.260;2024-02-26T10:33:39;468.25;;;205.45;;
45208;SDS011;30951;43.994;26.260;2024-02-26T10:36:07;478.40;;;211.70;;
45208;SDS011;30951;43.994;26.260;2024-02-26T10:38:33;190.05;;;83.40;;
45208;SDS011;30951;43.994;26.260;2024-02-26T10:41:01;440.58;;;168.18;;
45208;SDS011;30951;43.994;26.260;2024-02-26T10:43:28;553.42;;;243.05;;
45208;SDS011;30951;43.994;26.260;2024-02-26T10:45:56;1159.00;;;589.42;;
45208;SDS011;30951;43.994;26.260;2024-02-26T10:48:22;769.40;;;341.40;;
45208;SDS011;30951;43.994;26.260;2024-02-26T10:50:47;851.75;;;408.55;;
45208;SDS011;30951;43.994;26.260;2024-02-26T10:53:17;841.10;;;392.65;;
45208;SDS011;30951;43.994;26.260;2024-02-26T10:55:48;860.30;;;418.75;;
45208;SDS011;30951;43.994;26.260;2024-02-26T10:58:17;376.85;;;143.50;;
45208;SDS011;30951;43.994;26.260;2024-02-26T11:00:44;712.80;;;322.95;;
45208;SDS011;30951;43.994;26.260;2024-02-26T11:03:12;301.42;;;130.90;;
45208;SDS011;30951;43.994;26.260;2024-02-26T11:05:41;424.08;;;190.07;;
45208;SDS011;30951;43.994;26.260;2024-02-26T11:08:07;490.77;;;192.52;;
45208;SDS011;30951;43.994;26.260;2024-02-26T11:10:33;245.32;;;87.70;;
45208;SDS011;30951;43.994;26.260;2024-02-26T11:12:59;246.40;;;80.10;;
45208;SDS011;30951;43.994;26.260;2024-02-26T11:15:26;156.80;;;62.78;;
45208;SDS011;30951;43.994;26.260;2024-02-26T11:17:54;727.80;;;297.33;;
45208;SDS011;30951;43.994;26.260;2024-02-26T11:20:20;334.08;;;153.60;;
45208;SDS011;30951;43.994;26.260;2024-02-26T11:22:46;373.90;;;165.48;;
45208;SDS011;30951;43.994;26.260;2024-02-26T11:25:11;164.13;;;66.90;;
45208;SDS011;30951;43.994;26.260;2024-02-26T11:27:40;381.42;;;131.43;;
45208;SDS011;30951;43.994;26.260;2024-02-26T11:30:22;787.05;;;336.52;;
45208;SDS011;30951;43.994;26.260;2024-02-26T11:32:49;234.60;;;97.93;;
45208;SDS011;30951;43.994;26.260;2024-02-26T11:35:16;478.83;;;192.93;;
45208;SDS011;30951;43.994;26.260;2024-02-26T11:37:53;380.00;;;120.50;;
45208;SDS011;30951;43.994;26.260;2024-02-26T11:40:19;1999.90;;;727.83;;
45208;SDS011;30951;43.994;26.260;2024-02-26T11:42:45;244.48;;;103.07;;
45208;SDS011;30951;43.994;26.260;2024-02-26T11:48:21;166.75;;;78.63;;
45208;SDS011;30951;43.994;26.260;2024-02-26T11:50:49;98.35;;;39.42;;
45208;SDS011;30951;43.994;26.260;2024-02-26T11:53:22;105.35;;;44.92;;
45208;SDS011;30951;43.994;26.260;2024-02-26T11:58:59;91.68;;;32.80;;
45208;SDS011;30951;43.994;26.260;2024-02-26T12:04:13;30.42;;;14.07;;
45208;SDS011;30951;43.994;26.260;2024-02-26T12:06:41;17.48;;;9.55;;
45208;SDS011;30951;43.994;26.260;2024-02-26T12:09:08;31.63;;;17.23;;
45208;SDS011;30951;43.994;26.260;2024-02-26T12:11:40;59.03;;;24.70;;
45208;SDS011;30951;43.994;26.260;2024-02-26T12:14:07;17.25;;;10.40;;
45208;SDS011;30951;43.994;26.260;2024-02-26T12:16:37;15.18;;;9.50;;
45208;SDS011;30951;43.994;26.260;2024-02-26T12:19:04;21.67;;;9.88;;
45208;SDS011;30951;43.994;26.260;2024-02-26T12:21:33;17.92;;;9.60;;
45208;SDS011;30951;43.994;26.260;2024-02-26T12:24:18;23.85;;;10.27;;
45208;SDS011;30951;43.994;26.260;2024-02-26T12:26:45;12.73;;;8.10;;
45208;SDS011;30951;43.994;26.260;2024-02-26T12:29:10;15.80;;;8.27;;
45208;SDS011;30951;43.994;26.260;2024-02-26T12:31:36;14.65;;;9.15;;
45208;SDS011;30951;43.994;26.260;2024-02-26T12:34:02;10.20;;;8.20;;
45208;SDS011;30951;43.994;26.260;2024-02-26T12:36:28;13.82;;;8.32;;
45208;SDS011;30951;43.994;26.260;2024-02-26T12:38:54;13.73;;;8.30;;
45208;SDS011;30951;43.994;26.260;2024-02-26T12:41:20;16.52;;;9.02;;
45208;SDS011;30951;43.994;26.260;2024-02-26T12:43:46;18.27;;;8.98;;
45208;SDS011;30951;43.994;26.260;2024-02-26T12:46:11;16.88;;;8.50;;
45208;SDS011;30951;43.994;26.260;2024-02-26T12:48:38;14.05;;;7.85;;
45208;SDS011;30951;43.994;26.260;2024-02-26T12:51:04;15.93;;;8.30;;
45208;SDS011;30951;43.994;26.260;2024-02-26T12:53:31;15.02;;;8.50;;
45208;SDS011;30951;43.994;26.260;2024-02-26T12:55:57;15.25;;;8.00;;
45208;SDS011;30951;43.994;26.260;2024-02-26T12:58:23;13.13;;;8.07;;
45208;SDS011;30951;43.994;26.260;2024-02-26T13:00:53;13.57;;;7.30;;
45208;SDS011;30951;43.994;26.260;2024-02-26T13:03:19;10.65;;;7.20;;
45208;SDS011;30951;43.994;26.260;2024-02-26T13:05:46;15.00;;;7.15;;
45208;SDS011;30951;43.994;26.260;2024-02-26T13:08:18;10.25;;;6.97;;
45208;SDS011;30951;43.994;26.260;2024-02-26T13:10:48;8.13;;;6.10;;
45208;SDS011;30951;43.994;26.260;2024-02-26T13:15:43;16.38;;;7.22;;
45208;SDS011;30951;43.994;26.260;2024-02-26T13:18:12;19.40;;;6.85;;
45208;SDS011;30951;43.994;26.260;2024-02-26T13:20:38;13.07;;;7.00;;
45208;SDS011;30951;43.994;26.260;2024-02-26T13:23:07;22.92;;;6.25;;
45208;SDS011;30951;43.994;26.260;2024-02-26T13:25:36;15.60;;;6.57;;
45208;SDS011;30951;43.994;26.260;2024-02-26T13:28:16;12.63;;;7.03;;
45208;SDS011;30951;43.994;26.260;2024-02-26T13:31:17;11.32;;;6.25;;
45208;SDS011;30951;43.994;26.260;2024-02-26T13:33:35;12.52;;;7.07;;
45208;SDS011;30951;43.994;26.260;2024-02-26T13:36:01;10.65;;;7.22;;
45208;SDS011;30951;43.994;26.260;2024-02-26T13:38:27;21.50;;;9.73;;
45208;SDS011;30951;43.994;26.260;2024-02-26T13:40:53;17.10;;;7.50;;
45208;SDS011;30951;43.994;26.260;2024-02-26T13:43:19;19.02;;;8.63;;
45208;SDS011;30951;43.994;26.260;2024-02-26T13:45:44;13.55;;;7.32;;
45208;SDS011;30951;43.994;26.260;2024-02-26T13:48:10;13.00;;;6.88;;
45208;SDS011;30951;43.994;26.260;2024-02-26T13:50:37;15.95;;;7.63;;
45208;SDS011;30951;43.994;26.260;2024-02-26T13:53:06;19.10;;;10.57;;
45208;SDS011;30951;43.994;26.260;2024-02-26T13:55:32;13.68;;;6.85;;
45208;SDS011;30951;43.994;26.260;2024-02-26T13:57:58;13.00;;;6.38;;
45208;SDS011;30951;43.994;26.260;2024-02-26T14:00:26;11.95;;;7.13;;
45208;SDS011;30951;43.994;26.260;2024-02-26T14:02:52;13.60;;;6.07;;
45208;SDS011;30951;43.994;26.260;2024-02-26T14:05:18;10.75;;;6.20;;
45208;SDS011;30951;43.994;26.260;2024-02-26T14:07:44;13.35;;;5.93;;
45208;SDS011;30951;43.994;26.260;2024-02-26T14:10:12;15.57;;;5.70;;
45208;SDS011;30951;43.994;26.260;2024-02-26T14:12:38;11.77;;;5.65;;
45208;SDS011;30951;43.994;26.260;2024-02-26T14:15:05;10.45;;;5.47;;
45208;SDS011;30951;43.994;26.260;2024-02-26T14:17:32;12.13;;;5.68;;